sensor_id;sensor_type;location;lat;lon;timestamp;pressure;altitude;pressure_sealevel;temperature;humidity
11856;BME280;5987;53.140;8.904;2024-03-02T00:01:00;100940.91;;;5.71;100.00
11856;BME280;5987;53.140;8.904;2024-03-02T00:04:07;100942.63;;;5.72;100.00
11856;BME280;5987;53.140;8.904;2024-03-02T00:07:14;100955.69;;;5.70;100.00
11856;BME280;5987;53.140;8.904;2024-03-02T00:10:22;100962.56;;;5.76;100.00
11856;BME280;5987;53.140;8.904;2024-03-02T00:13:27;100956.47;;;5.74;100.00
11856;BME280;5987;53.140;8.904;2024-03-02T00:16:32;100971.25;;;5.75;100.00
11856;BME280;5987;53.140;8.904;2024-03-02T00:19:39;100968.63;;;5.75;100.00
11856;BME280;5987;53.140;8.904;2024-03-02T00:22:44;100967.78;;;5.74;100.00
11856;BME280;5987;53.140;8.904;2024-03-02T00:25:54;100973.84;;;5.75;100.00
11856;BME280;5987;53.140;8.904;2024-03-02T00:28:59;100957.34;;;5.76;100.00
11856;BME280;5987;53.140;8.904;2024-03-02T00:32:03;100950.41;;;5.75;100.00
11856;BME280;5987;53.140;8.904;2024-03-02T00:35:11;100948.56;;;5.81;100.00
11856;BME280;5987;53.140;8.904;2024-03-02T00:38:17;100942.59;;;5.73;100.00
11856;BME280;5987;53.140;8.904;2024-03-02T00:41:24;100946.94;;;5.74;100.00
11856;BME280;5987;53.140;8.904;2024-03-02T00:44:28;100945.28;;;5.69;100.00
11856;BME280;5987;53.140;8.904;2024-03-02T00:47:38;100946.22;;;5.64;100.00
11856;BME280;5987;53.140;8.904;2024-03-02T00:50:42;100945.38;;;5.62;100.00
11856;BME280;5987;53.140;8.904;2024-03-02T00:53:48;100948.03;;;5.59;100.00
11856;BME280;5987;53.140;8.904;2024-03-02T00:56:53;100948.94;;;5.55;100.00
11856;BME280;5987;53.140;8.904;2024-03-02T00:59:59;100954.13;;;5.57;100.00
11856;BME280;5987;53.140;8.904;2024-03-02T01:03:03;100955.06;;;5.53;100.00
11856;BME280;5987;53.140;8.904;2024-03-02T01:06:08;100962.13;;;5.43;100.00
11856;BME280;5987;53.140;8.904;2024-03-02T01:09:13;100970.75;;;5.48;100.00
11856;BME280;5987;53.140;8.904;2024-03-02T01:12:17;100978.59;;;5.46;100.00
11856;BME280;5987;53.140;8.904;2024-03-02T01:15:21;100979.47;;;5.44;100.00
11856;BME280;5987;53.140;8.904;2024-03-02T01:18:25;100982.97;;;5.44;100.00
11856;BME280;5987;53.140;8.904;2024-03-02T01:21:29;100989.94;;;5.41;100.00
11856;BME280;5987;53.140;8.904;2024-03-02T01:24:34;100993.41;;;5.40;100.00
11856;BME280;5987;53.140;8.904;2024-03-02T01:27:38;101004.69;;;5.43;100.00
11856;BME280;5987;53.140;8.904;2024-03-02T01:30:42;101008.13;;;5.44;100.00
11856;BME280;5987;53.140;8.904;2024-03-02T01:33:46;101011.59;;;5.43;100.00
11856;BME280;5987;53.140;8.904;2024-03-02T01:36:50;101010.81;;;5.38;100.00
11856;BME280;5987;53.140;8.904;2024-03-02T01:39:55;101007.34;;;5.36;100.00
11856;BME280;5987;53.140;8.904;2024-03-02T01:42:59;101014.38;;;5.30;100.00
11856;BME280;5987;53.140;8.904;2024-03-02T01:46:03;101019.63;;;5.29;100.00
11856;BME280;5987;53.140;8.904;2024-03-02T01:49:07;101019.63;;;5.27;100.00
11856;BME280;5987;53.140;8.904;2024-03-02T01:52:12;101019.59;;;5.30;100.00
11856;BME280;5987;53.140;8.904;2024-03-02T01:55:17;101026.66;;;5.21;100.00
11856;BME280;5987;53.140;8.904;2024-03-02T01:58:21;101022.34;;;5.17;100.00
11856;BME280;5987;53.140;8.904;2024-03-02T02:01:25;101027.56;;;5.15;100.00
11856;BME280;5987;53.140;8.904;2024-03-02T02:04:29;101038.81;;;5.17;100.00
11856;BME280;5987;53.140;8.904;2024-03-02T02:07:33;101029.28;;;5.16;100.00
11856;BME280;5987;53.140;8.904;2024-03-02T02:10:38;101020.59;;;5.17;100.00
11856;BME280;5987;53.140;8.904;2024-03-02T02:13:42;101014.59;;;5.12;100.00
11856;BME280;5987;53.140;8.904;2024-03-02T02:16:46;101016.25;;;5.16;100.00
11856;BME280;5987;53.140;8.904;2024-03-02T02:19:50;101017.19;;;5.13;100.00
11856;BME280;5987;53.140;8.904;2024-03-02T02:23:00;100995.56;;;5.07;100.00
11856;BME280;5987;53.140;8.904;2024-03-02T02:26:04;100983.50;;;5.00;100.00
11856;BME280;5987;53.140;8.904;2024-03-02T02:29:07;100987.00;;;4.97;100.00
11856;BME280;5987;53.140;8.904;2024-03-02T02:32:11;100984.44;;;4.94;100.00
11856;BME280;5987;53.140;8.904;2024-03-02T02:35:15;100979.25;;;4.89;100.00
11856;BME280;5987;53.140;8.904;2024-03-02T02:38:20;100988.84;;;4.87;100.00
11856;BME280;5987;53.140;8.904;2024-03-02T02:41:24;101014.84;;;4.89;100.00
11856;BME280;5987;53.140;8.904;2024-03-02T02:44:28;101013.13;;;4.86;100.00
11856;BME280;5987;53.140;8.904;2024-03-02T02:47:32;101016.59;;;4.85;100.00
11856;BME280;5987;53.140;8.904;2024-03-02T02:50:37;101020.09;;;4.84;100.00
11856;BME280;5987;53.140;8.904;2024-03-02T02:53:42;101017.47;;;4.86;100.00
11856;BME280;5987;53.140;8.904;2024-03-02T02:56:46;101027.00;;;4.85;100.00
11856;BME280;5987;53.140;8.904;2024-03-02T02:59:50;101027.03;;;4.82;100.00
11856;BME280;5987;53.140;8.904;2024-03-02T03:02:54;101028.00;;;4.73;100.00
11856;BME280;5987;53.140;8.904;2024-03-02T03:05:58;101035.78;;;4.75;100.00
11856;BME280;5987;53.140;8.904;2024-03-02T03:09:03;101036.69;;;4.69;100.00
11856;BME280;5987;53.140;8.904;2024-03-02T03:12:07;101041.03;;;4.72;100.00
11856;BME280;5987;53.140;8.904;2024-03-02T03:15:11;101052.28;;;4.72;100.00
11856;BME280;5987;53.140;8.904;2024-03-02T03:18:15;101060.06;;;4.74;100.00
11856;BME280;5987;53.140;8.904;2024-03-02T03:21:19;101054.03;;;4.70;100.00
11856;BME280;5987;53.140;8.904;2024-03-02T03:24:25;101054.84;;;4.74;100.00
11856;BME280;5987;53.140;8.904;2024-03-02T03:27:29;101051.38;;;4.75;100.00
11856;BME280;5987;53.140;8.904;2024-03-02T03:30:33;101046.16;;;4.81;100.00
11856;BME280;5987;53.140;8.904;2024-03-02T03:33:36;101056.53;;;4.84;100.00
11856;BME280;5987;53.140;8.904;2024-03-02T03:36:40;101050.50;;;4.77;100.00
11856;BME280;5987;53.140;8.904;2024-03-02T03:39:46;101042.69;;;4.79;100.00
11856;BME280;5987;53.140;8.904;2024-03-02T03:42:50;101032.28;;;4.77;100.00
11856;BME280;5987;53.140;8.904;2024-03-02T03:45:54;101034.03;;;4.77;100.00
11856;BME280;5987;53.140;8.904;2024-03-02T03:48:58;101035.75;;;4.81;100.00
11856;BME280;5987;53.140;8.904;2024-03-02T03:52:03;101032.31;;;4.76;100.00
11856;BME280;5987;53.140;8.904;2024-03-02T03:55:09;101021.91;;;4.76;100.00
11856;BME280;5987;53.140;8.904;2024-03-02T03:58:13;101030.59;;;4.75;100.00
11856;BME280;5987;53.140;8.904;2024-03-02T04:01:17;101022.75;;;4.76;100.00
11856;BME280;5987;53.140;8.904;2024-03-02T04:04:21;101019.34;;;4.70;100.00
11856;BME280;5987;53.140;8.904;2024-03-02T04:07:25;101019.28;;;4.77;100.00
11856;BME280;5987;53.140;8.904;2024-03-02T04:10:30;101006.34;;;4.73;100.00
11856;BME280;5987;53.140;8.904;2024-03-02T04:13:34;101011.53;;;4.74;100.00
11856;BME280;5987;53.140;8.904;2024-03-02T04:16:38;101014.13;;;4.73;100.00
11856;BME280;5987;53.140;8.904;2024-03-02T04:19:41;101005.44;;;4.74;100.00
11856;BME280;5987;53.140;8.904;2024-03-02T04:22:45;101003.75;;;4.70;100.00
11856;BME280;5987;53.140;8.904;2024-03-02T04:25:50;100999.47;;;4.67;100.00
11856;BME280;5987;53.140;8.904;2024-03-02T04:28:54;101001.13;;;4.73;100.00
11856;BME280;5987;53.140;8.904;2024-03-02T04:31:59;100997.66;;;4.71;100.00
11856;BME280;5987;53.140;8.904;2024-03-02T04:35:05;100990.72;;;4.73;100.00
11856;BME280;5987;53.140;8.904;2024-03-02T04:38:10;100983.72;;;4.78;100.00
11856;BME280;5987;53.140;8.904;2024-03-02T04:41:15;100985.44;;;4.80;100.00
11856;BME280;5987;53.140;8.904;2024-03-02T04:44:19;100970.75;;;4.76;100.00
11856;BME280;5987;53.140;8.904;2024-03-02T04:47:23;100971.53;;;4.85;100.00
11856;BME280;5987;53.140;8.904;2024-03-02T04:50:27;100975.00;;;4.84;100.00
11856;BME280;5987;53.140;8.904;2024-03-02T04:53:31;100983.63;;;4.87;100.00
11856;BME280;5987;53.140;8.904;2024-03-02T04:56:36;100974.22;;;4.74;100.00
11856;BME280;5987;53.140;8.904;2024-03-02T04:59:47;100979.44;;;4.75;100.00
11856;BME280;5987;53.140;8.904;2024-03-02T05:02:50;100976.81;;;4.77;100.00
11856;BME280;5987;53.140;8.904;2024-03-02T05:05:54;100983.72;;;4.81;100.00
11856;BME280;5987;53.140;8.904;2024-03-02T05:08:58;100974.09;;;4.88;100.00
11856;BME280;5987;53.140;8.904;2024-03-02T05:12:04;100969.63;;;4.97;100.00
11856;BME280;5987;53.140;8.904;2024-03-02T05:15:32;100955.72;;;5.02;100.00
11856;BME280;5987;53.140;8.904;2024-03-02T05:18:37;100946.94;;;5.12;100.00
11856;BME280;5987;53.140;8.904;2024-03-02T05:21:41;100917.34;;;5.16;100.00
11856;BME280;5987;53.140;8.904;2024-03-02T05:24:46;100897.50;;;5.12;100.00
11856;BME280;5987;53.140;8.904;2024-03-02T05:27:51;100885.28;;;5.14;100.00
11856;BME280;5987;53.140;8.904;2024-03-02T05:30:55;100871.25;;;5.24;100.00
11856;BME280;5987;53.140;8.904;2024-03-02T05:33:59;100854.78;;;5.25;100.00
11856;BME280;5987;53.140;8.904;2024-03-02T05:37:03;100837.47;;;5.21;100.00
11856;BME280;5987;53.140;8.904;2024-03-02T05:40:08;100825.22;;;5.29;100.00
11856;BME280;5987;53.140;8.904;2024-03-02T05:43:15;100819.31;;;5.18;100.00
11856;BME280;5987;53.140;8.904;2024-03-02T05:46:19;100822.72;;;5.20;100.00
11856;BME280;5987;53.140;8.904;2024-03-02T05:49:23;100822.78;;;5.17;100.00
11856;BME280;5987;53.140;8.904;2024-03-02T05:52:27;100827.16;;;5.15;100.00
11856;BME280;5987;53.140;8.904;2024-03-02T05:55:31;100832.44;;;5.09;100.00
11856;BME280;5987;53.140;8.904;2024-03-02T05:58:36;100829.81;;;5.10;100.00
11856;BME280;5987;53.140;8.904;2024-03-02T06:01:55;100836.81;;;5.07;100.00
11856;BME280;5987;53.140;8.904;2024-03-02T06:04:59;100846.34;;;5.08;100.00
11856;BME280;5987;53.140;8.904;2024-03-02T06:08:03;100850.63;;;5.12;100.00
11856;BME280;5987;53.140;8.904;2024-03-02T06:11:07;100853.25;;;5.12;100.00
11856;BME280;5987;53.140;8.904;2024-03-02T06:14:13;100858.41;;;5.15;100.00
11856;BME280;5987;53.140;8.904;2024-03-02T06:17:16;100851.50;;;5.11;100.00
11856;BME280;5987;53.140;8.904;2024-03-02T06:20:21;100858.34;;;5.18;100.00
11856;BME280;5987;53.140;8.904;2024-03-02T06:23:24;100860.06;;;5.19;100.00
11856;BME280;5987;53.140;8.904;2024-03-02T06:26:28;100859.16;;;5.23;100.00
11856;BME280;5987;53.140;8.904;2024-03-02T06:29:35;100855.63;;;5.27;100.00
11856;BME280;5987;53.140;8.904;2024-03-02T06:32:39;100847.81;;;5.27;100.00
11856;BME280;5987;53.140;8.904;2024-03-02T06:35:43;100846.88;;;5.30;100.00
11856;BME280;5987;53.140;8.904;2024-03-02T06:38:47;100838.97;;;5.38;100.00
11856;BME280;5987;53.140;8.904;2024-03-02T06:41:51;100835.41;;;5.43;100.00
11856;BME280;5987;53.140;8.904;2024-03-02T06:44:56;100830.25;;;5.42;100.00
11856;BME280;5987;53.140;8.904;2024-03-02T06:48:00;100826.69;;;5.46;100.00
11856;BME280;5987;53.140;8.904;2024-03-02T06:51:04;100821.44;;;5.49;100.00
11856;BME280;5987;53.140;8.904;2024-03-02T06:54:08;100825.72;;;5.53;100.00
11856;BME280;5987;53.140;8.904;2024-03-02T06:57:12;100816.19;;;5.52;100.00
11856;BME280;5987;53.140;8.904;2024-03-02T07:00:18;100812.53;;;5.62;100.00
11856;BME280;5987;53.140;8.904;2024-03-02T07:03:22;100812.53;;;5.62;100.00
11856;BME280;5987;53.140;8.904;2024-03-02T07:06:26;100801.19;;;5.65;100.00
11856;BME280;5987;53.140;8.904;2024-03-02T07:09:30;100801.13;;;5.71;100.00
11856;BME280;5987;53.140;8.904;2024-03-02T07:12:34;100795.03;;;5.71;100.00
11856;BME280;5987;53.140;8.904;2024-03-02T07:15:39;100805.38;;;5.74;100.00
11856;BME280;5987;53.140;8.904;2024-03-02T07:19:13;100800.94;;;5.80;100.00
11856;BME280;5987;53.140;8.904;2024-03-02T07:22:17;100803.41;;;5.88;100.00
11856;BME280;5987;53.140;8.904;2024-03-02T07:25:21;100799.72;;;6.01;100.00
11856;BME280;5987;53.140;8.904;2024-03-02T07:28:28;100800.53;;;6.05;100.00
11856;BME280;5987;53.140;8.904;2024-03-02T07:31:34;100789.88;;;6.17;100.00
11856;BME280;5987;53.140;8.904;2024-03-02T07:34:38;100779.31;;;6.24;100.00
11856;BME280;5987;53.140;8.904;2024-03-02T07:37:42;100779.22;;;6.28;100.00
11856;BME280;5987;53.140;8.904;2024-03-02T07:41:12;100773.72;;;6.42;100.00
11856;BME280;5987;53.140;8.904;2024-03-02T07:44:19;100753.59;;;6.49;100.00
11856;BME280;5987;53.140;8.904;2024-03-02T07:47:27;100739.50;;;6.58;100.00
11856;BME280;5987;53.140;8.904;2024-03-02T07:50:31;100727.88;;;6.73;100.00
11856;BME280;5987;53.140;8.904;2024-03-02T07:53:39;100717.44;;;6.73;100.00
11856;BME280;5987;53.140;8.904;2024-03-02T07:56:43;100698.44;;;6.66;100.00
11856;BME280;5987;53.140;8.904;2024-03-02T07:59:47;100682.69;;;6.70;100.00
11856;BME280;5987;53.140;8.904;2024-03-02T08:02:53;100676.56;;;6.72;100.00
11856;BME280;5987;53.140;8.904;2024-03-02T08:05:57;100665.22;;;6.74;100.00
11856;BME280;5987;53.140;8.904;2024-03-02T08:09:01;100662.50;;;6.79;100.00
11856;BME280;5987;53.140;8.904;2024-03-02T08:12:13;100659.16;;;6.74;100.00
11856;BME280;5987;53.140;8.904;2024-03-02T08:15:19;100654.53;;;6.83;100.00
11856;BME280;5987;53.140;8.904;2024-03-02T08:18:28;100663.97;;;6.89;100.00
11856;BME280;5987;53.140;8.904;2024-03-02T08:21:31;100664.81;;;6.91;100.00
11856;BME280;5987;53.140;8.904;2024-03-02T08:24:37;100652.56;;;6.93;100.00
11856;BME280;5987;53.140;8.904;2024-03-02T08:27:41;100642.06;;;6.96;100.00
11856;BME280;5987;53.140;8.904;2024-03-02T08:30:46;100646.44;;;6.94;100.00
11856;BME280;5987;53.140;8.904;2024-03-02T08:33:51;100648.19;;;6.95;100.00
11856;BME280;5987;53.140;8.904;2024-03-02T08:36:55;100654.56;;;7.18;100.00
11856;BME280;5987;53.140;8.904;2024-03-02T08:39:59;100645.75;;;7.22;100.00
11856;BME280;5987;53.140;8.904;2024-03-02T08:43:04;100634.88;;;7.06;100.00
11856;BME280;5987;53.140;8.904;2024-03-02T08:46:08;100649.19;;;7.24;100.00
11856;BME280;5987;53.140;8.904;2024-03-02T08:49:14;100628.84;;;7.35;100.00
11856;BME280;5987;53.140;8.904;2024-03-02T08:52:17;100625.31;;;7.38;100.00
11856;BME280;5987;53.140;8.904;2024-03-02T08:55:21;100622.16;;;7.25;100.00
11856;BME280;5987;53.140;8.904;2024-03-02T08:58:25;100636.31;;;7.49;100.00
11856;BME280;5987;53.140;8.904;2024-03-02T09:01:29;100636.84;;;7.62;100.00
11856;BME280;5987;53.140;8.904;2024-03-02T09:04:35;100623.31;;;7.79;100.00
11856;BME280;5987;53.140;8.904;2024-03-02T09:07:38;100612.97;;;8.06;100.00
11856;BME280;5987;53.140;8.904;2024-03-02T09:10:42;100607.41;;;7.87;100.00
11856;BME280;5987;53.140;8.904;2024-03-02T09:13:46;100613.69;;;8.10;100.00
11856;BME280;5987;53.140;8.904;2024-03-02T09:16:50;100600.78;;;8.33;100.00
11856;BME280;5987;53.140;8.904;2024-03-02T09:19:55;100586.41;;;8.48;100.00
11856;BME280;5987;53.140;8.904;2024-03-02T09:22:59;100583.47;;;8.57;100.00
11856;BME280;5987;53.140;8.904;2024-03-02T09:26:03;100569.13;;;8.69;100.00
11856;BME280;5987;53.140;8.904;2024-03-02T09:29:07;100559.63;;;8.67;100.00
11856;BME280;5987;53.140;8.904;2024-03-02T09:32:13;100541.69;;;8.81;100.00
11856;BME280;5987;53.140;8.904;2024-03-02T09:35:19;100534.28;;;8.67;100.00
11856;BME280;5987;53.140;8.904;2024-03-02T09:38:23;100537.22;;;8.85;100.00
11856;BME280;5987;53.140;8.904;2024-03-02T09:41:27;100528.34;;;8.89;100.00
11856;BME280;5987;53.140;8.904;2024-03-02T09:44:32;100520.47;;;9.14;100.00
11856;BME280;5987;53.140;8.904;2024-03-02T09:47:36;100526.19;;;9.24;100.00
11856;BME280;5987;53.140;8.904;2024-03-02T09:50:43;100513.22;;;9.21;100.00
11856;BME280;5987;53.140;8.904;2024-03-02T09:53:48;100516.69;;;8.98;100.00
11856;BME280;5987;53.140;8.904;2024-03-02T09:56:52;100528.34;;;8.89;100.00
11856;BME280;5987;53.140;8.904;2024-03-02T09:59:56;100519.72;;;9.10;100.00
11856;BME280;5987;53.140;8.904;2024-03-02T10:03:00;100514.56;;;9.33;100.00
11856;BME280;5987;53.140;8.904;2024-03-02T10:06:21;100509.59;;;9.49;100.00
11856;BME280;5987;53.140;8.904;2024-03-02T10:09:27;100502.28;;;9.57;100.00
11856;BME280;5987;53.140;8.904;2024-03-02T10:12:31;100494.25;;;9.61;100.00
11856;BME280;5987;53.140;8.904;2024-03-02T10:15:41;100485.72;;;9.56;100.00
11856;BME280;5987;53.140;8.904;2024-03-02T10:18:46;100470.00;;;9.56;100.00
11856;BME280;5987;53.140;8.904;2024-03-02T10:21:52;100475.50;;;9.72;100.00
11856;BME280;5987;53.140;8.904;2024-03-02T10:24:57;100467.94;;;9.87;100.00
11856;BME280;5987;53.140;8.904;2024-03-02T10:28:01;100466.28;;;9.84;100.00
11856;BME280;5987;53.140;8.904;2024-03-02T10:31:08;100465.13;;;9.91;100.00
11856;BME280;5987;53.140;8.904;2024-03-02T10:34:13;100458.53;;;10.03;100.00
11856;BME280;5987;53.140;8.904;2024-03-02T10:37:21;100453.63;;;10.38;100.00
11856;BME280;5987;53.140;8.904;2024-03-02T10:40:26;100456.19;;;10.40;100.00
11856;BME280;5987;53.140;8.904;2024-03-02T10:43:31;100452.59;;;10.42;100.00
11856;BME280;5987;53.140;8.904;2024-03-02T10:46:37;100439.66;;;10.58;100.00
11856;BME280;5987;53.140;8.904;2024-03-02T10:49:42;100439.63;;;10.17;100.00
11856;BME280;5987;53.140;8.904;2024-03-02T10:52:48;100449.38;;;10.36;100.00
11856;BME280;5987;53.140;8.904;2024-03-02T10:55:58;100444.44;;;10.49;100.00
11856;BME280;5987;53.140;8.904;2024-03-02T10:59:17;100444.84;;;10.60;100.00
11856;BME280;5987;53.140;8.904;2024-03-02T11:02:25;100423.22;;;10.74;100.00
11856;BME280;5987;53.140;8.904;2024-03-02T11:05:35;100426.44;;;10.80;100.00
11856;BME280;5987;53.140;8.904;2024-03-02T11:08:44;100422.47;;;10.91;100.00
11856;BME280;5987;53.140;8.904;2024-03-02T11:12:00;100420.66;;;10.93;100.00
11856;BME280;5987;53.140;8.904;2024-03-02T11:15:16;100426.16;;;10.87;100.00
11856;BME280;5987;53.140;8.904;2024-03-02T11:18:21;100421.78;;;11.06;100.00
11856;BME280;5987;53.140;8.904;2024-03-02T11:21:26;100414.03;;;11.03;100.00
11856;BME280;5987;53.140;8.904;2024-03-02T11:24:35;100419.88;;;11.29;100.00
11856;BME280;5987;53.140;8.904;2024-03-02T11:27:59;100414.59;;;10.91;100.00
11856;BME280;5987;53.140;8.904;2024-03-02T11:31:04;100423.06;;;10.97;100.00
11856;BME280;5987;53.140;8.904;2024-03-02T11:34:28;100420.13;;;11.42;100.00
11856;BME280;5987;53.140;8.904;2024-03-02T11:37:33;100410.06;;;11.32;100.00
11856;BME280;5987;53.140;8.904;2024-03-02T11:40:40;100412.94;;;11.28;100.00
11856;BME280;5987;53.140;8.904;2024-03-02T11:43:44;100412.13;;;11.07;100.00
11856;BME280;5987;53.140;8.904;2024-03-02T11:46:52;100415.75;;;11.23;100.00
11856;BME280;5987;53.140;8.904;2024-03-02T11:49:57;100408.78;;;11.41;100.00
11856;BME280;5987;53.140;8.904;2024-03-02T11:53:03;100399.50;;;11.34;100.00
11856;BME280;5987;53.140;8.904;2024-03-02T11:56:13;100394.59;;;11.63;100.00
11856;BME280;5987;53.140;8.904;2024-03-02T11:59:18;100390.47;;;11.40;100.00
11856;BME280;5987;53.140;8.904;2024-03-02T12:02:23;100396.63;;;11.58;100.00
11856;BME280;5987;53.140;8.904;2024-03-02T12:05:28;100395.41;;;11.46;100.00
11856;BME280;5987;53.140;8.904;2024-03-02T12:08:32;100384.78;;;11.49;100.00
11856;BME280;5987;53.140;8.904;2024-03-02T12:11:37;100388.41;;;11.64;100.00
11856;BME280;5987;53.140;8.904;2024-03-02T12:14:51;100380.56;;;11.81;100.00
11856;BME280;5987;53.140;8.904;2024-03-02T12:17:55;100387.66;;;11.98;100.00
11856;BME280;5987;53.140;8.904;2024-03-02T12:20:59;100375.59;;;11.75;100.00
11856;BME280;5987;53.140;8.904;2024-03-02T12:24:05;100381.41;;;11.82;100.00
11856;BME280;5987;53.140;8.904;2024-03-02T12:27:12;100383.00;;;11.67;100.00
11856;BME280;5987;53.140;8.904;2024-03-02T12:30:17;100388.31;;;11.48;100.00
11856;BME280;5987;53.140;8.904;2024-03-02T12:33:22;100380.19;;;11.53;100.00
11856;BME280;5987;53.140;8.904;2024-03-02T12:36:26;100383.63;;;11.55;100.00
11856;BME280;5987;53.140;8.904;2024-03-02T12:39:30;100374.19;;;11.68;100.00
11856;BME280;5987;53.140;8.904;2024-03-02T12:42:37;100387.22;;;11.89;100.00
11856;BME280;5987;53.140;8.904;2024-03-02T12:45:41;100376.00;;;11.67;100.00
11856;BME280;5987;53.140;8.904;2024-03-02T12:48:46;100388.06;;;11.89;100.00
11856;BME280;5987;53.140;8.904;2024-03-02T12:51:50;100390.06;;;11.84;100.00
11856;BME280;5987;53.140;8.904;2024-03-02T12:54:56;100385.94;;;11.97;100.00
11856;BME280;5987;53.140;8.904;2024-03-02T12:58:21;100374.44;;;12.00;100.00
11856;BME280;5987;53.140;8.904;2024-03-02T13:01:51;100364.88;;;12.15;100.00
11856;BME280;5987;53.140;8.904;2024-03-02T13:04:55;100367.13;;;12.05;100.00
11856;BME280;5987;53.140;8.904;2024-03-02T13:08:00;100370.56;;;12.07;100.00
11856;BME280;5987;53.140;8.904;2024-03-02T13:11:06;100373.63;;;11.98;100.00
11856;BME280;5987;53.140;8.904;2024-03-02T13:14:12;100365.75;;;11.98;100.00
11856;BME280;5987;53.140;8.904;2024-03-02T13:17:17;100356.91;;;12.16;100.00
11856;BME280;5987;53.140;8.904;2024-03-02T13:20:21;100348.16;;;12.16;100.00
11856;BME280;5987;53.140;8.904;2024-03-02T13:23:27;100339.22;;;12.36;100.00
11856;BME280;5987;53.140;8.904;2024-03-02T13:26:33;100340.66;;;12.26;100.00
11856;BME280;5987;53.140;8.904;2024-03-02T13:29:38;100340.63;;;12.43;100.00
11856;BME280;5987;53.140;8.904;2024-03-02T13:32:42;100325.16;;;12.37;100.00
11856;BME280;5987;53.140;8.904;2024-03-02T13:35:46;100335.84;;;12.34;100.00
11856;BME280;5987;53.140;8.904;2024-03-02T13:38:49;100334.59;;;12.41;100.00
11856;BME280;5987;53.140;8.904;2024-03-02T13:41:53;100334.09;;;12.17;100.00
11856;BME280;5987;53.140;8.904;2024-03-02T13:45:08;100332.03;;;12.40;100.00
11856;BME280;5987;53.140;8.904;2024-03-02T13:48:12;100316.16;;;12.41;100.00
11856;BME280;5987;53.140;8.904;2024-03-02T13:51:17;100318.03;;;12.39;100.00
11856;BME280;5987;53.140;8.904;2024-03-02T13:54:21;100313.81;;;12.52;100.00
11856;BME280;5987;53.140;8.904;2024-03-02T13:57:25;100312.09;;;12.51;100.00
11856;BME280;5987;53.140;8.904;2024-03-02T14:00:32;100311.09;;;12.54;100.00
11856;BME280;5987;53.140;8.904;2024-03-02T14:03:36;100318.22;;;12.52;100.00
11856;BME280;5987;53.140;8.904;2024-03-02T14:06:40;100317.53;;;12.48;100.00
11856;BME280;5987;53.140;8.904;2024-03-02T14:09:46;100319.78;;;12.56;100.00
11856;BME280;5987;53.140;8.904;2024-03-02T14:12:50;100316.53;;;12.51;100.00
11856;BME280;5987;53.140;8.904;2024-03-02T14:15:56;100307.25;;;12.44;100.00
11856;BME280;5987;53.140;8.904;2024-03-02T14:19:01;100303.25;;;12.37;100.00
11856;BME280;5987;53.140;8.904;2024-03-02T14:22:07;100306.06;;;12.49;100.00
11856;BME280;5987;53.140;8.904;2024-03-02T14:25:13;100307.34;;;12.58;100.00
11856;BME280;5987;53.140;8.904;2024-03-02T14:28:17;100295.97;;;12.58;100.00
11856;BME280;5987;53.140;8.904;2024-03-02T14:31:43;100299.88;;;12.50;100.00
11856;BME280;5987;53.140;8.904;2024-03-02T14:34:50;100307.41;;;12.74;100.00
11856;BME280;5987;53.140;8.904;2024-03-02T14:37:57;100302.53;;;12.82;100.00
11856;BME280;5987;53.140;8.904;2024-03-02T14:41:04;100312.66;;;12.74;100.00
11856;BME280;5987;53.140;8.904;2024-03-02T14:44:08;100311.50;;;12.46;100.00
11856;BME280;5987;53.140;8.904;2024-03-02T14:47:14;100300.72;;;12.51;100.00
11856;BME280;5987;53.140;8.904;2024-03-02T14:50:18;100297.53;;;12.62;100.00
11856;BME280;5987;53.140;8.904;2024-03-02T14:53:22;100298.66;;;12.40;100.00
11856;BME280;5987;53.140;8.904;2024-03-02T14:56:25;100298.44;;;12.45;100.00
11856;BME280;5987;53.140;8.904;2024-03-02T14:59:31;100302.53;;;12.33;100.00
11856;BME280;5987;53.140;8.904;2024-03-02T15:02:36;100303.91;;;12.40;100.00
11856;BME280;5987;53.140;8.904;2024-03-02T15:05:40;100302.53;;;12.33;100.00
11856;BME280;5987;53.140;8.904;2024-03-02T15:08:44;100292.53;;;12.24;100.00
11856;BME280;5987;53.140;8.904;2024-03-02T15:11:49;100293.63;;;12.35;100.00
11856;BME280;5987;53.140;8.904;2024-03-02T15:14:52;100286.59;;;12.36;100.00
11856;BME280;5987;53.140;8.904;2024-03-02T15:17:58;100290.25;;;12.33;100.00
11856;BME280;5987;53.140;8.904;2024-03-02T15:21:04;100301.81;;;12.13;100.00
11856;BME280;5987;53.140;8.904;2024-03-02T15:24:08;100305.06;;;12.18;100.00
11856;BME280;5987;53.140;8.904;2024-03-02T15:27:13;100298.09;;;12.17;100.00
11856;BME280;5987;53.140;8.904;2024-03-02T15:30:17;100305.38;;;12.12;100.00
11856;BME280;5987;53.140;8.904;2024-03-02T15:33:22;100305.84;;;12.03;100.00
11856;BME280;5987;53.140;8.904;2024-03-02T15:36:32;100301.03;;;11.94;100.00
11856;BME280;5987;53.140;8.904;2024-03-02T15:39:36;100314.00;;;11.98;100.00
11856;BME280;5987;53.140;8.904;2024-03-02T15:42:39;100301.19;;;11.91;100.00
11856;BME280;5987;53.140;8.904;2024-03-02T15:45:43;100292.84;;;12.00;100.00
11856;BME280;5987;53.140;8.904;2024-03-02T15:48:49;100297.63;;;11.92;100.00
11856;BME280;5987;53.140;8.904;2024-03-02T15:51:53;100294.44;;;11.85;100.00
11856;BME280;5987;53.140;8.904;2024-03-02T15:54:57;100300.78;;;11.81;100.00
11856;BME280;5987;53.140;8.904;2024-03-02T15:58:01;100295.69;;;11.78;100.00
11856;BME280;5987;53.140;8.904;2024-03-02T16:01:08;100308.22;;;11.73;100.00
11856;BME280;5987;53.140;8.904;2024-03-02T16:04:13;100299.50;;;11.72;100.00
11856;BME280;5987;53.140;8.904;2024-03-02T16:07:18;100300.31;;;11.73;100.00
11856;BME280;5987;53.140;8.904;2024-03-02T16:10:22;100301.28;;;11.72;100.00
11856;BME280;5987;53.140;8.904;2024-03-02T16:13:27;100296.03;;;11.72;100.00
11856;BME280;5987;53.140;8.904;2024-03-02T16:16:31;100304.28;;;11.64;100.00
11856;BME280;5987;53.140;8.904;2024-03-02T16:19:37;100308.78;;;11.62;100.00